createdAt,value
2018-02-22T00:01:18.589Z,97405.61
2018-02-22T00:03:46.141Z,97407.41
2018-02-22T00:06:13.681Z,97406.94
2018-02-22T00:08:41.362Z,97404.81
2018-02-22T00:11:09.120Z,97403.63
2018-02-22T00:13:36.630Z,97398.95
2018-02-22T00:16:04.162Z,97397.67
2018-02-22T00:18:31.710Z,97399.45
2018-02-22T00:20:59.257Z,97396.97
2018-02-22T00:23:26.766Z,97394.06
2018-02-22T00:25:54.300Z,97396.17
2018-02-22T00:28:21.845Z,97389.02
2018-02-22T00:30:49.367Z,97389.30
2018-02-22T00:33:16.935Z,97389.50
2018-02-22T00:35:44.453Z,97379.74
2018-02-22T00:38:11.973Z,97381.55
2018-02-22T00:40:39.534Z,97378.25
2018-02-22T00:43:07.061Z,97379.69
2018-02-22T00:45:34.978Z,97379.87
2018-02-22T00:48:02.502Z,97374.38
2018-02-22T00:50:30.058Z,97376.48
2018-02-22T00:52:57.617Z,97368.91
2018-02-22T00:55:25.142Z,97368.23
2018-02-22T00:57:52.965Z,97370.25
2018-02-22T01:00:20.489Z,97367.67
2018-02-22T01:02:48.026Z,97372.16
2018-02-22T01:05:15.589Z,97367.33
2018-02-22T01:07:43.114Z,97373.52
2018-02-22T01:10:10.666Z,97375.19
2018-02-22T01:12:38.185Z,97366.10
2018-02-22T01:15:05.911Z,97364.42
2018-02-22T01:17:33.483Z,97373.57
2018-02-22T01:20:01.020Z,97373.98
2018-02-22T01:22:28.757Z,97376.32
2018-02-22T01:24:56.269Z,97374.25
2018-02-22T01:27:23.794Z,97373.89
2018-02-22T01:29:51.361Z,97367.34
2018-02-22T01:32:18.885Z,97361.56
2018-02-22T01:34:46.560Z,97364.73
2018-02-22T01:37:14.106Z,97357.71
2018-02-22T01:39:41.648Z,97358.65
2018-02-22T01:42:09.197Z,97354.27
2018-02-22T01:44:36.729Z,97355.03
2018-02-22T01:47:04.281Z,97354.80
2018-02-22T01:49:31.806Z,97350.33
2018-02-22T01:51:59.337Z,97348.86
2018-02-22T01:54:26.893Z,97343.98
2018-02-22T01:56:54.420Z,97339.16
2018-02-22T01:59:21.979Z,97341.13
2018-02-22T02:01:49.514Z,97344.81
2018-02-22T02:04:17.042Z,97344.02
2018-02-22T02:06:44.597Z,97335.73
2018-02-22T02:09:12.118Z,97341.14
2018-02-22T02:11:39.691Z,97336.55
2018-02-22T02:14:07.214Z,97334.88
2018-02-22T02:16:34.740Z,97336.86
2018-02-22T02:19:02.313Z,97331.91
2018-02-22T02:21:29.841Z,97331.08
2018-02-22T02:23:57.642Z,97333.95
2018-02-22T02:26:25.157Z,97331.41
2018-02-22T02:28:52.673Z,97329.00
2018-02-22T02:31:20.225Z,97320.58
2018-02-22T02:33:47.754Z,97322.98
2018-02-22T02:36:15.990Z,97323.08
2018-02-22T02:38:43.522Z,97321.78
2018-02-22T02:41:11.046Z,97321.39
2018-02-22T02:43:38.603Z,97325.06
2018-02-22T02:46:06.136Z,97324.07
2018-02-22T02:48:33.711Z,97319.61
2018-02-22T02:51:01.262Z,97319.43
2018-02-22T02:53:29.701Z,97310.84
2018-02-22T02:55:57.255Z,97310.87
2018-02-22T02:58:24.790Z,97301.36
2018-02-22T03:00:52.663Z,97308.03
2018-02-22T03:03:20.187Z,97308.28
2018-02-22T03:05:47.743Z,97307.33
2018-02-22T03:08:15.302Z,97300.37
2018-02-22T03:10:42.818Z,97297.16
2018-02-22T03:13:10.398Z,97299.19
2018-02-22T03:15:37.913Z,97298.84
2018-02-22T03:18:05.426Z,97305.81
2018-02-22T03:20:32.982Z,97300.39
2018-02-22T03:23:00.502Z,97292.59
2018-02-22T03:25:28.257Z,97300.80
2018-02-22T03:27:55.773Z,97293.90
2018-02-22T03:30:23.311Z,97294.52
2018-02-22T03:32:50.862Z,97294.84
2018-02-22T03:35:18.415Z,97297.40
2018-02-22T03:37:46.258Z,97296.90
2018-02-22T03:40:14.249Z,97294.52
2018-02-22T03:42:41.763Z,97292.87
2018-02-22T03:45:09.319Z,97291.77
2018-02-22T03:47:36.853Z,97292.94
2018-02-22T03:50:04.420Z,97295.57
2018-02-22T03:52:31.946Z,97300.28
2018-02-22T03:54:59.483Z,97298.76
2018-02-22T03:57:27.043Z,97297.09
2018-02-22T03:59:54.566Z,97294.25
2018-02-22T04:02:22.117Z,97296.61
2018-02-22T04:04:49.633Z,97298.66
2018-02-22T04:07:17.154Z,97299.09
2018-02-22T04:09:44.697Z,97301.64
2018-02-22T04:12:12.214Z,97298.25
2018-02-22T04:14:39.873Z,97296.63
2018-02-22T04:17:07.409Z,97301.16
2018-02-22T04:19:34.934Z,97302.03
2018-02-22T04:22:02.483Z,97307.02
2018-02-22T04:24:30.332Z,97296.95
2018-02-22T04:26:57.897Z,97304.73
2018-02-22T04:29:25.441Z,97307.27
2018-02-22T04:31:52.963Z,97301.50
2018-02-22T04:34:20.510Z,97305.30
2018-02-22T04:36:48.033Z,97302.89
2018-02-22T04:39:15.592Z,97312.38
2018-02-22T04:41:43.113Z,97304.86
2018-02-22T04:44:10.635Z,97305.94
2018-02-22T04:46:38.188Z,97306.91
2018-02-22T04:49:05.714Z,97307.00
2018-02-22T04:51:33.266Z,97304.29
2018-02-22T04:54:00.797Z,97298.25
2018-02-22T04:56:28.322Z,97299.82
2018-02-22T04:58:56.766Z,97301.88
2018-02-22T05:01:24.293Z,97299.95
2018-02-22T05:03:52.391Z,97297.48
2018-02-22T05:06:19.908Z,97295.91
2018-02-22T05:08:47.469Z,97299.09
2018-02-22T05:11:15.256Z,97303.19
2018-02-22T05:13:42.778Z,97308.27
2018-02-22T05:16:10.473Z,97299.07
2018-02-22T05:18:38.000Z,97298.67
2018-02-22T05:21:05.523Z,97299.07
2018-02-22T05:23:33.082Z,97292.16
2018-02-22T05:26:01.012Z,97293.88
2018-02-22T05:28:29.623Z,97287.09
2018-02-22T05:30:57.161Z,97294.13
2018-02-22T05:33:24.686Z,97290.58
2018-02-22T05:35:52.235Z,97287.09
2018-02-22T05:38:19.749Z,97290.89
2018-02-22T05:40:47.500Z,97295.98
2018-02-22T05:43:15.041Z,97294.22
2018-02-22T05:45:42.744Z,97292.84
2018-02-22T05:48:10.296Z,97298.25
2018-02-22T05:50:37.818Z,97289.42
2018-02-22T05:53:05.601Z,97287.30
2018-02-22T05:55:33.118Z,97291.30
2018-02-22T05:58:00.641Z,97287.69
2018-02-22T06:00:28.205Z,97293.11
2018-02-22T06:02:55.745Z,97291.14
2018-02-22T06:05:23.406Z,97281.75
2018-02-22T06:07:50.932Z,97292.21
2018-02-22T06:10:18.455Z,97290.63
2018-02-22T06:12:46.010Z,97278.23
2018-02-22T06:15:13.600Z,97278.01
2018-02-22T06:17:41.213Z,97282.58
2018-02-22T06:20:08.738Z,97280.88
2018-02-22T06:22:36.259Z,97279.71
2018-02-22T06:25:03.814Z,97283.36
2018-02-22T06:27:31.348Z,97282.44
2018-02-22T06:29:59.202Z,97285.19
2018-02-22T06:32:26.718Z,97286.94
2018-02-22T06:34:54.253Z,97288.09
2018-02-22T06:37:21.838Z,97295.87
2018-02-22T06:39:49.350Z,97286.00
2018-02-22T06:42:17.200Z,97298.03
2018-02-22T06:44:44.728Z,97294.59
2018-02-22T06:47:12.252Z,97291.94
2018-02-22T06:49:39.802Z,97305.83
2018-02-22T06:52:07.322Z,97299.66
2018-02-22T06:54:35.203Z,97300.08
2018-02-22T06:57:02.727Z,97301.25
2018-02-22T06:59:30.248Z,97296.39
2018-02-22T07:01:57.814Z,97302.69
2018-02-22T07:04:25.333Z,97303.80
2018-02-22T07:06:53.029Z,97300.25
2018-02-22T07:09:20.554Z,97300.16
2018-02-22T07:11:48.078Z,97300.20
2018-02-22T07:14:15.643Z,97301.71
2018-02-22T07:16:43.167Z,97295.14
2018-02-22T07:19:10.818Z,97304.95
2018-02-22T07:21:38.382Z,97296.02
2018-02-22T07:24:05.901Z,97291.33
2018-02-22T07:26:33.450Z,97295.61
2018-02-22T07:29:00.971Z,97299.34
2018-02-22T07:31:28.519Z,97300.29
2018-02-22T07:33:56.041Z,97299.35
2018-02-22T07:36:23.567Z,97309.92
2018-02-22T07:38:51.120Z,97293.06
2018-02-22T07:41:18.639Z,97292.94
2018-02-22T07:43:46.386Z,97298.41
2018-02-22T07:46:13.906Z,97301.61
2018-02-22T07:48:41.434Z,97298.55
2018-02-22T07:51:09.870Z,97302.23
2018-02-22T07:53:37.426Z,97297.30
2018-02-22T07:56:05.194Z,97305.73
2018-02-22T07:58:32.732Z,97297.81
2018-02-22T08:01:00.255Z,97301.05
2018-02-22T08:03:27.818Z,97302.29
2018-02-22T08:05:55.343Z,97303.08
2018-02-22T08:08:23.004Z,97301.45
2018-02-22T08:10:50.528Z,97296.45
2018-02-22T08:13:18.041Z,97303.14
2018-02-22T08:15:45.607Z,97302.22
2018-02-22T08:18:13.126Z,97303.46
2018-02-22T08:20:40.682Z,97307.30
2018-02-22T08:23:08.253Z,97298.23
2018-02-22T08:25:35.749Z,97305.70
2018-02-22T08:28:03.299Z,97314.48
2018-02-22T08:30:30.826Z,97312.35
2018-02-22T08:32:58.494Z,97304.15
2018-02-22T08:35:26.014Z,97301.64
2018-02-22T08:37:57.301Z,97299.98
2018-02-22T08:40:24.846Z,97300.81
2018-02-22T08:42:52.378Z,97296.25
2018-02-22T08:45:20.187Z,97309.98
2018-02-22T08:47:47.707Z,97295.42
2018-02-22T08:50:15.230Z,97297.09
2018-02-22T08:52:42.778Z,97282.54
2018-02-22T08:55:10.300Z,97287.50
2018-02-22T08:57:37.867Z,97290.00
2018-02-22T09:00:05.390Z,97280.02
2018-02-22T09:02:32.911Z,97284.61
2018-02-22T09:05:00.486Z,97269.22
2018-02-22T09:07:28.023Z,97283.77
2018-02-22T09:09:55.579Z,97282.95
2018-02-22T09:12:23.115Z,97275.88
2018-02-22T09:14:50.638Z,97281.69
2018-02-22T09:17:18.184Z,97282.94
2018-02-22T09:19:45.719Z,97284.98
2018-02-22T09:22:13.271Z,97281.66
2018-02-22T09:24:40.794Z,97285.43
2018-02-22T09:27:08.319Z,97281.68
2018-02-22T09:29:35.865Z,97279.20
2018-02-22T09:32:03.386Z,97282.90
2018-02-22T09:34:31.262Z,97284.12
2018-02-22T09:36:58.781Z,97277.92
2018-02-22T09:39:26.305Z,97271.59
2018-02-22T09:41:53.850Z,97276.25
2018-02-22T09:44:21.370Z,97280.53
2018-02-22T09:46:48.936Z,97282.28
2018-02-22T09:49:16.463Z,97281.31
2018-02-22T09:51:43.981Z,97279.89
2018-02-22T09:54:11.518Z,97275.42
2018-02-22T09:56:39.043Z,97278.55
2018-02-22T09:59:06.826Z,97277.85
2018-02-22T10:01:34.435Z,97277.92
2018-02-22T10:04:01.955Z,97282.16
2018-02-22T10:06:29.536Z,97279.99
2018-02-22T10:08:57.049Z,97274.70
2018-02-22T10:11:24.756Z,97280.37
2018-02-22T10:13:52.297Z,97280.75
2018-02-22T10:16:20.102Z,97274.55
2018-02-22T10:18:47.692Z,97274.02
2018-02-22T10:21:15.202Z,97271.52
2018-02-22T10:23:42.866Z,97267.52
2018-02-22T10:26:10.393Z,97274.18
2018-02-22T10:28:37.953Z,97263.42
2018-02-22T10:31:05.542Z,97264.72
2018-02-22T10:33:33.062Z,97257.25
2018-02-22T10:36:00.630Z,97259.02
2018-02-22T10:38:28.151Z,97260.48
2018-02-22T10:40:55.673Z,97270.13
2018-02-22T10:43:23.217Z,97269.22
2018-02-22T10:45:51.014Z,97267.56
2018-02-22T10:48:18.982Z,97270.88
2018-02-22T10:50:46.587Z,97271.23
2018-02-22T10:53:14.309Z,97263.28
2018-02-22T10:55:41.871Z,97266.89
2018-02-22T10:58:09.387Z,97257.55
2018-02-22T11:00:42.505Z,97263.36
2018-02-22T11:03:10.049Z,97261.33
2018-02-22T11:05:37.598Z,97253.52
2018-02-22T11:08:05.612Z,97242.61
2018-02-22T11:10:33.369Z,97242.95
2018-02-22T11:13:00.918Z,97237.35
2018-02-22T11:15:28.459Z,97239.22
2018-02-22T11:17:55.982Z,97234.01
2018-02-22T11:20:23.534Z,97243.55
2018-02-22T11:22:51.054Z,97238.69
2018-02-22T11:25:18.821Z,97234.52
2018-02-22T11:27:46.484Z,97231.74
2018-02-22T11:30:14.010Z,97242.30
2018-02-22T11:32:41.662Z,97231.73
2018-02-22T11:35:09.369Z,97232.52
2018-02-22T11:37:37.541Z,97228.32
2018-02-22T11:40:05.062Z,97224.09
2018-02-22T11:42:32.710Z,97224.66
2018-02-22T11:45:00.261Z,97221.52
2018-02-22T11:47:27.778Z,97198.80
2018-02-22T11:49:55.734Z,97206.48
2018-02-22T11:52:23.305Z,97208.30
2018-02-22T11:54:50.826Z,97216.92
2018-02-22T11:57:18.375Z,97203.06
2018-02-22T11:59:45.895Z,97199.93
2018-02-22T12:02:13.469Z,97198.27
2018-02-22T12:04:40.990Z,97203.81
2018-02-22T12:07:08.510Z,97205.42
2018-02-22T12:09:36.063Z,97200.29
2018-02-22T12:12:03.574Z,97195.98
2018-02-22T12:14:31.128Z,97191.09
2018-02-22T12:16:58.652Z,97201.95
2018-02-22T12:19:26.252Z,97197.61
2018-02-22T12:21:53.895Z,97198.39
2018-02-22T12:24:22.486Z,97195.02
2018-02-22T12:26:50.030Z,97193.27
2018-02-22T12:29:17.627Z,97197.42
2018-02-22T12:31:45.145Z,97197.67
2018-02-22T12:34:13.558Z,97192.44
2018-02-22T12:36:41.073Z,97181.22
2018-02-22T12:39:08.784Z,97182.48
2018-02-22T12:41:36.429Z,97179.77
2018-02-22T12:44:04.201Z,97188.45
2018-02-22T12:46:31.754Z,97178.27
2018-02-22T12:48:59.400Z,97178.95
2018-02-22T12:51:27.173Z,97177.67
2018-02-22T12:53:54.716Z,97179.97
2018-02-22T12:56:22.296Z,97181.13
2018-02-22T12:58:49.966Z,97182.83
2018-02-22T13:01:17.549Z,97180.48
2018-02-22T13:03:45.393Z,97177.38
2018-02-22T13:06:13.156Z,97179.70
2018-02-22T13:08:40.733Z,97177.72
2018-02-22T13:11:08.377Z,97178.86
2018-02-22T13:13:35.909Z,97172.48
2018-02-22T13:16:03.445Z,97172.80
2018-02-22T13:18:30.979Z,97172.30
2018-02-22T13:20:58.582Z,97176.44
2018-02-22T13:23:26.146Z,97168.34
2018-02-22T13:25:53.661Z,97171.88
2018-02-22T13:28:21.254Z,97159.98
2018-02-22T13:30:48.926Z,97160.87
2018-02-22T13:33:28.400Z,97162.44
2018-02-22T13:35:56.277Z,97162.44
2018-02-22T13:38:35.671Z,97158.55
2018-02-22T13:41:03.268Z,97163.61
2018-02-22T13:43:30.805Z,97160.92
2018-02-22T13:45:58.342Z,97157.06
2018-02-22T13:51:28.206Z,97155.19
2018-02-22T13:53:55.758Z,97160.64
2018-02-22T13:56:35.306Z,97157.47
2018-02-22T13:59:02.905Z,97153.81
2018-02-22T14:04:38.376Z,97152.97
2018-02-22T14:07:06.195Z,97152.73
2018-02-22T14:09:34.063Z,97150.73
2018-02-22T14:12:01.934Z,97162.31
2018-02-22T14:14:29.603Z,97159.50
2018-02-22T14:16:57.456Z,97160.13
2018-02-22T14:19:25.181Z,97159.91
2018-02-22T14:21:52.883Z,97161.44
2018-02-22T14:24:20.633Z,97147.36
2018-02-22T14:26:48.241Z,97157.65
2018-02-22T14:29:15.755Z,97160.20
2018-02-22T14:31:43.353Z,97162.52
2018-02-22T14:34:11.909Z,97161.91
2018-02-22T14:36:39.661Z,97155.77
2018-02-22T14:39:07.210Z,97158.50
2018-02-22T14:41:34.742Z,97153.50
2018-02-22T14:44:02.397Z,97154.78
2018-02-22T14:46:30.106Z,97150.37
2018-02-22T14:48:58.073Z,97151.33
2018-02-22T14:51:25.848Z,97151.63
2018-02-22T14:53:53.816Z,97150.82
2018-02-22T14:56:21.488Z,97151.59
2018-02-22T14:58:49.136Z,97154.33
2018-02-22T15:01:17.006Z,97146.14
2018-02-22T15:03:44.755Z,97150.41
2018-02-22T15:06:12.831Z,97146.84
2018-02-22T15:08:40.714Z,97135.92
2018-02-22T15:11:08.585Z,97148.02
2018-02-22T15:13:36.544Z,97151.95
2018-02-22T15:16:04.412Z,97146.31
2018-02-22T15:18:32.280Z,97149.51
2018-02-22T15:21:00.042Z,97158.89
2018-02-22T15:23:27.911Z,97160.44
2018-02-22T15:25:55.876Z,97154.02
2018-02-22T15:28:23.885Z,97153.98
2018-02-22T15:30:52.327Z,97151.86
2018-02-22T15:33:20.092Z,97159.75
2018-02-22T15:35:47.958Z,97154.94
2018-02-22T15:38:15.928Z,97156.07
2018-02-22T15:40:43.894Z,97156.63
2018-02-22T15:43:12.274Z,97158.53
2018-02-22T15:45:40.195Z,97155.81
2018-02-22T15:48:08.008Z,97157.28
2018-02-22T15:50:36.046Z,97163.00
2018-02-22T15:53:03.901Z,97157.22
2018-02-22T15:55:32.017Z,97159.77
2018-02-22T15:57:59.881Z,97162.02
2018-02-22T16:00:27.748Z,97161.38
2018-02-22T16:02:55.406Z,97164.02
2018-02-22T16:05:23.057Z,97162.69
2018-02-22T16:07:50.738Z,97162.16
2018-02-22T16:10:18.599Z,97158.04
2018-02-22T16:12:46.978Z,97159.71
2018-02-22T16:15:15.051Z,97154.70
2018-02-22T16:17:42.816Z,97159.97
2018-02-22T16:20:10.680Z,97155.63
2018-02-22T16:22:38.547Z,97151.27
2018-02-22T16:25:07.335Z,97160.77
2018-02-22T16:27:35.321Z,97161.61
2018-02-22T16:30:03.171Z,97159.99
2018-02-22T16:32:31.948Z,97164.80
2018-02-22T16:34:59.879Z,97161.70
2018-02-22T16:37:27.570Z,97159.16
2018-02-22T16:39:55.700Z,97162.05
2018-02-22T16:42:24.243Z,97164.62
2018-02-22T16:44:52.212Z,97169.25
2018-02-22T16:47:25.495Z,97165.10
2018-02-22T16:49:53.476Z,97169.69
2018-02-22T16:52:21.445Z,97171.63
2018-02-22T16:54:49.310Z,97166.17
2018-02-22T16:57:17.386Z,97172.43
2018-02-22T16:59:45.151Z,97170.99
2018-02-22T17:02:13.319Z,97177.56
2018-02-22T17:04:41.391Z,97176.77
2018-02-22T17:07:09.777Z,97185.02
2018-02-22T17:09:37.912Z,97182.47
2018-02-22T17:12:06.094Z,97181.17
2018-02-22T17:14:34.393Z,97184.56
2018-02-22T17:17:03.082Z,97186.55
2018-02-22T17:19:31.048Z,97188.17
2018-02-22T17:21:59.016Z,97186.69
2018-02-22T17:24:26.883Z,97188.17
2018-02-22T17:27:00.403Z,97190.76
2018-02-22T17:29:33.778Z,97194.53
2018-02-22T17:32:07.173Z,97196.22
2018-02-22T17:34:35.042Z,97194.97
2018-02-22T17:37:12.944Z,97191.61
2018-02-22T17:42:48.585Z,97195.45
2018-02-22T17:45:16.583Z,97201.60
2018-02-22T17:47:44.568Z,97198.61
2018-02-22T17:50:12.522Z,97204.84
2018-02-22T17:52:40.488Z,97202.41
2018-02-22T17:55:09.277Z,97202.39
2018-02-22T17:57:37.247Z,97202.52
2018-02-22T18:00:05.110Z,97200.44
2018-02-22T18:02:34.195Z,97195.80
2018-02-22T18:05:02.035Z,97198.31
2018-02-22T18:07:30.058Z,97201.27
2018-02-22T18:09:58.013Z,97205.25
2018-02-22T18:12:26.288Z,97208.62
2018-02-22T18:14:54.256Z,97211.54
2018-02-22T18:17:22.153Z,97206.27
2018-02-22T18:19:50.120Z,97204.47
2018-02-22T18:22:18.168Z,97206.20
2018-02-22T18:24:46.544Z,97211.65
2018-02-22T18:27:14.738Z,97210.91
2018-02-22T18:29:44.056Z,97210.45
2018-02-22T18:32:13.114Z,97210.44
2018-02-22T18:34:40.934Z,97209.88
2018-02-22T18:37:14.646Z,97214.66
2018-02-22T18:39:42.690Z,97217.44
2018-02-22T18:42:16.268Z,97213.69
2018-02-22T18:44:49.771Z,97218.41
2018-02-22T18:47:18.641Z,97216.08
2018-02-22T18:49:46.607Z,97218.00
2018-02-22T18:52:14.474Z,97215.61
2018-02-22T18:54:43.164Z,97215.22
2018-02-22T18:57:11.904Z,97212.50
2018-02-22T18:59:40.019Z,97210.05
2018-02-22T19:02:07.890Z,97212.56
2018-02-22T19:04:35.856Z,97213.95
2018-02-22T19:07:03.847Z,97215.61
2018-02-22T19:09:31.794Z,97208.79
2018-02-22T19:12:00.817Z,97209.44
2018-02-22T19:14:29.675Z,97212.25
2018-02-22T19:16:57.645Z,97215.20
2018-02-22T19:19:26.972Z,97212.16
2018-02-22T19:21:55.296Z,97215.25
2018-02-22T19:24:23.703Z,97205.67
2018-02-22T19:26:51.570Z,97204.78
2018-02-22T19:29:20.560Z,97208.08
2018-02-22T19:31:49.133Z,97206.17
2018-02-22T19:34:17.420Z,97213.98
2018-02-22T19:36:45.568Z,97213.53
2018-02-22T19:39:13.461Z,97209.75
2018-02-22T19:41:41.942Z,97214.98
2018-02-22T19:44:11.150Z,97218.44
2018-02-22T19:46:39.086Z,97218.93
2018-02-22T19:49:07.054Z,97216.97
2018-02-22T19:51:35.764Z,97212.80
2018-02-22T19:54:03.733Z,97215.20
2018-02-22T19:56:31.704Z,97207.79
2018-02-22T19:59:00.692Z,97212.70
2018-02-22T20:01:29.091Z,97211.09
2018-02-22T20:03:57.348Z,97206.52
2018-02-22T20:06:25.247Z,97203.98
2018-02-22T20:08:53.490Z,97203.92
2018-02-22T20:11:21.357Z,97204.75
2018-02-22T20:13:49.845Z,97209.02
2018-02-22T20:16:17.826Z,97207.73
2018-02-22T20:18:46.086Z,97209.47
2018-02-22T20:21:14.462Z,97210.67
2018-02-22T20:23:42.305Z,97207.42
2018-02-22T20:26:10.595Z,97214.00
2018-02-22T20:28:38.440Z,97213.19
2018-02-22T20:31:06.337Z,97204.93
2018-02-22T20:33:34.307Z,97212.50
2018-02-22T20:36:02.483Z,97209.94
2018-02-22T20:38:31.727Z,97214.95
2018-02-22T20:40:59.648Z,97214.55
2018-02-22T20:43:27.487Z,97213.73
2018-02-22T20:45:55.485Z,97215.30
2018-02-22T20:48:23.452Z,97206.18
2018-02-22T20:50:51.420Z,97209.95
2018-02-22T20:53:24.830Z,97213.70
2018-02-22T20:55:53.044Z,97205.77
2018-02-22T20:58:21.173Z,97207.83
2018-02-22T21:00:49.332Z,97210.73
2018-02-22T21:03:17.513Z,97204.92
2018-02-22T21:05:45.461Z,97213.59
2018-02-22T21:08:14.165Z,97214.00
2018-02-22T21:10:42.032Z,97211.41
2018-02-22T21:13:10.001Z,97205.33
2018-02-22T21:15:37.970Z,97209.63
2018-02-22T21:18:05.837Z,97211.22
2018-02-22T21:20:33.935Z,97201.23
2018-02-22T21:23:02.185Z,97203.35
2018-02-22T21:25:30.115Z,97205.43
2018-02-22T21:27:57.959Z,97202.90
2018-02-22T21:30:25.888Z,97207.45
2018-02-22T21:32:53.752Z,97202.94
2018-02-22T21:35:21.621Z,97201.69
2018-02-22T21:37:49.486Z,97209.56
2018-02-22T21:40:17.661Z,97211.63
2018-02-22T21:42:45.741Z,97207.90
2018-02-22T21:45:13.703Z,97215.03
2018-02-22T21:47:41.543Z,97218.70
2018-02-22T21:50:09.434Z,97219.20
2018-02-22T21:52:37.607Z,97217.92
2018-02-22T21:55:05.372Z,97222.16
2018-02-22T21:57:33.442Z,97223.36
2018-02-22T22:00:01.207Z,97220.72
2018-02-22T22:02:28.970Z,97227.06
2018-02-22T22:04:56.939Z,97231.72
2018-02-22T22:07:25.625Z,97233.77
2018-02-22T22:09:54.007Z,97230.88
2018-02-22T22:12:21.855Z,97230.04
2018-02-22T22:14:49.512Z,97235.02
2018-02-22T22:17:17.311Z,97235.89
2018-02-22T22:19:45.162Z,97233.75
2018-02-22T22:22:13.028Z,97228.77
2018-02-22T22:24:40.895Z,97227.58
2018-02-22T22:27:08.841Z,97226.73
2018-02-22T22:29:37.140Z,97231.33
2018-02-22T22:32:04.938Z,97217.52
2018-02-22T22:34:33.180Z,97223.42
2018-02-22T22:37:01.049Z,97218.34
2018-02-22T22:39:29.630Z,97218.74
2018-02-22T22:41:57.508Z,97218.36
2018-02-22T22:44:26.285Z,97216.72
2018-02-22T22:46:53.910Z,97212.95
2018-02-22T22:49:21.849Z,97213.83
2018-02-22T22:51:49.452Z,97213.89
2018-02-22T22:54:17.182Z,97208.35
2018-02-22T22:56:44.893Z,97215.84
2018-02-22T22:59:12.511Z,97203.89
2018-02-22T23:01:40.035Z,97206.28
2018-02-22T23:04:07.559Z,97212.19
2018-02-22T23:06:35.328Z,97210.48
2018-02-22T23:09:02.853Z,97218.45
2018-02-22T23:11:30.763Z,97209.77
2018-02-22T23:13:58.806Z,97204.30
2018-02-22T23:16:26.462Z,97204.73
2018-02-22T23:18:54.368Z,97200.57
2018-02-22T23:21:21.919Z,97211.36
2018-02-22T23:23:49.699Z,97206.38
2018-02-22T23:26:17.220Z,97206.36
2018-02-22T23:28:44.809Z,97205.55
2018-02-22T23:31:12.370Z,97206.41
2018-02-22T23:33:39.885Z,97209.30
2018-02-22T23:36:07.440Z,97201.45
2018-02-22T23:38:35.010Z,97208.00
2018-02-22T23:44:13.550Z,97209.31
2018-02-22T23:46:41.267Z,97208.89
2018-02-22T23:49:08.804Z,97202.25
2018-02-22T23:51:36.365Z,97205.55
2018-02-22T23:54:04.243Z,97199.78
2018-02-22T23:56:31.777Z,97203.55
2018-02-22T23:58:59.457Z,97196.89
